createdAt,value
2022-08-19T00:01:01.286Z,555.3
2022-08-19T00:02:02.906Z,555.3
2022-08-19T00:03:04.588Z,555.3
2022-08-19T00:04:06.313Z,555.2
2022-08-19T00:05:07.939Z,555
2022-08-19T00:06:09.490Z,555.2
2022-08-19T00:07:11.234Z,555.2
2022-08-19T00:08:12.811Z,555.8
2022-08-19T00:09:14.335Z,555.7
2022-08-19T00:10:16.000Z,555.5
2022-08-19T00:11:26.618Z,555.6
2022-08-19T00:12:28.166Z,555.5
2022-08-19T00:13:29.912Z,555.7
2022-08-19T00:14:31.584Z,555
2022-08-19T00:15:33.166Z,555.6
2022-08-19T00:16:34.707Z,555.8
2022-08-19T00:17:42.447Z,555.7
2022-08-19T00:18:44.114Z,555.8
2022-08-19T00:19:45.662Z,555.2
2022-08-19T00:20:47.249Z,555.2
2022-08-19T00:21:48.906Z,554.6
2022-08-19T00:22:50.489Z,554.6
2022-08-19T00:23:52.124Z,554.6
2022-08-19T00:24:55.106Z,554.3
2022-08-19T00:25:56.772Z,554.1
2022-08-19T00:27:27.274Z,554.1
2022-08-19T00:28:28.956Z,553.9
2022-08-19T00:29:30.488Z,553.8
2022-08-19T00:30:32.053Z,554.1
2022-08-19T00:31:33.688Z,553.6
2022-08-19T00:32:35.403Z,553.8
2022-08-19T00:33:37.114Z,553.8
2022-08-19T00:34:38.861Z,554.3
2022-08-19T00:35:40.405Z,554.2
2022-08-19T00:36:41.952Z,554
2022-08-19T00:37:43.716Z,554.1
2022-08-19T00:38:45.371Z,554
2022-08-19T00:39:49.962Z,554
2022-08-19T00:40:51.581Z,554.3
2022-08-19T00:41:53.131Z,554.6
2022-08-19T00:42:54.823Z,554.4
2022-08-19T00:43:56.554Z,554.7
2022-08-19T00:44:58.158Z,554.8
2022-08-19T00:45:59.735Z,554
2022-08-19T00:47:01.613Z,554.3
2022-08-19T00:48:03.255Z,554.2
2022-08-19T00:49:04.792Z,554.5
2022-08-19T00:50:06.327Z,554.5
2022-08-19T00:51:07.869Z,554.9
2022-08-19T00:52:09.490Z,554.9
2022-08-19T00:53:12.072Z,554.5
2022-08-19T00:54:13.824Z,554.3
2022-08-19T00:55:15.485Z,554.2
2022-08-19T00:56:17.129Z,554.5
2022-08-19T00:57:18.730Z,553.9
2022-08-19T00:58:20.420Z,554.4
2022-08-19T01:00:03.855Z,554.7
2022-08-19T01:01:05.595Z,554.1
2022-08-19T01:02:07.234Z,554.3
2022-08-19T01:03:08.891Z,554.3
2022-08-19T01:04:10.492Z,554.3
2022-08-19T01:05:12.036Z,554.3
2022-08-19T01:06:13.619Z,554
2022-08-19T01:07:21.449Z,553.9
2022-08-19T01:08:23.155Z,553.8
2022-08-19T01:09:24.738Z,553.7
2022-08-19T01:10:26.435Z,553.6
2022-08-19T01:11:27.967Z,553.9
2022-08-19T01:12:29.609Z,554.1
2022-08-19T01:13:50.797Z,554.1
2022-08-19T01:14:52.649Z,554.1
2022-08-19T01:15:56.867Z,554.3
2022-08-19T01:16:58.704Z,554.4
2022-08-19T01:18:00.348Z,554.1
2022-08-19T01:19:01.923Z,554.1
2022-08-19T01:20:03.553Z,554.2
2022-08-19T01:21:05.305Z,554.4
2022-08-19T01:22:17.189Z,554.5
2022-08-19T01:23:18.753Z,554.3
2022-08-19T01:24:20.480Z,554.9
2022-08-19T01:25:29.068Z,554.7
2022-08-19T01:26:32.876Z,554.7
2022-08-19T01:27:45.673Z,554.7
2022-08-19T01:28:47.247Z,555
2022-08-19T01:29:48.910Z,554.4
2022-08-19T01:30:51.668Z,554.6
2022-08-19T01:31:53.273Z,554.5
2022-08-19T01:32:55.536Z,554.1
2022-08-19T01:33:57.300Z,553.9
2022-08-19T01:34:58.918Z,553.8
2022-08-19T01:36:00.506Z,553.6
2022-08-19T01:37:02.046Z,553.7
2022-08-19T01:38:04.900Z,553.3
2022-08-19T01:39:06.550Z,553.7
2022-08-19T01:40:10.196Z,553.9
2022-08-19T01:41:12.077Z,554.4
2022-08-19T01:42:13.705Z,554.3
2022-08-19T01:43:15.248Z,554.4
2022-08-19T01:44:19.697Z,554.6
2022-08-19T01:45:21.368Z,555.2
2022-08-19T01:46:25.622Z,554.9
2022-08-19T01:47:27.168Z,555
2022-08-19T01:48:28.710Z,554.6
2022-08-19T01:49:30.389Z,554.5
2022-08-19T01:50:32.214Z,554.7
2022-08-19T01:51:40.933Z,554.4
2022-08-19T01:52:42.602Z,554.5
2022-08-19T01:53:44.855Z,554.5
2022-08-19T01:54:47.506Z,554.9
2022-08-19T01:55:49.052Z,554.7
2022-08-19T01:56:51.587Z,554.8
2022-08-19T01:57:53.180Z,554.5
2022-08-19T01:58:54.820Z,554.6
2022-08-19T01:59:56.641Z,554.4
2022-08-19T02:00:58.225Z,554.4
2022-08-19T02:01:59.805Z,554.5
2022-08-19T02:03:01.344Z,554.5
2022-08-19T02:04:02.949Z,554.5
2022-08-19T02:05:04.698Z,554.3
2022-08-19T02:06:06.239Z,554.4
2022-08-19T02:07:07.865Z,554.5
2022-08-19T02:08:09.614Z,554.5
2022-08-19T02:09:11.164Z,554.8
2022-08-19T02:10:17.084Z,554.6
2022-08-19T02:11:18.763Z,554.9
2022-08-19T02:12:20.314Z,555.1
2022-08-19T02:13:26.956Z,554.9
2022-08-19T02:14:28.497Z,555.2
2022-08-19T02:15:30.163Z,555.3
2022-08-19T02:16:31.972Z,555.1
2022-08-19T02:17:33.743Z,555.1
2022-08-19T02:18:35.401Z,555.2
2022-08-19T02:19:41.563Z,555.1
2022-08-19T02:20:43.196Z,555.4
2022-08-19T02:21:44.913Z,555.3
2022-08-19T02:22:46.460Z,555.3
2022-08-19T02:23:48.082Z,555.2
2022-08-19T02:24:49.680Z,555
2022-08-19T02:25:51.322Z,554.9
2022-08-19T02:26:52.858Z,554.7
2022-08-19T02:27:54.574Z,554.4
2022-08-19T02:28:56.223Z,554.2
2022-08-19T02:29:57.764Z,554.6
2022-08-19T02:30:59.449Z,554.8
2022-08-19T02:32:01.087Z,554.2
2022-08-19T02:33:02.613Z,554.1
2022-08-19T02:34:06.865Z,554.2
2022-08-19T02:35:13.670Z,554.1
2022-08-19T02:36:16.075Z,554.2
2022-08-19T02:37:17.763Z,554
2022-08-19T02:38:19.358Z,554.1
2022-08-19T02:39:20.967Z,554.5
2022-08-19T02:40:22.502Z,553.9
2022-08-19T02:41:27.657Z,554.3
2022-08-19T02:42:29.321Z,554.1
2022-08-19T02:43:35.049Z,554.3
2022-08-19T02:44:36.691Z,553.8
2022-08-19T02:45:42.418Z,554
2022-08-19T02:46:44.040Z,553.5
2022-08-19T02:47:45.738Z,553.8
2022-08-19T02:48:47.267Z,553.3
2022-08-19T02:49:48.805Z,553.3
2022-08-19T02:50:54.259Z,553.1
2022-08-19T02:51:55.906Z,553
2022-08-19T02:52:57.586Z,553.3
2022-08-19T02:53:59.187Z,553.4
2022-08-19T02:55:00.782Z,553.4
2022-08-19T02:56:04.989Z,553.5
2022-08-19T02:57:06.530Z,553.3
2022-08-19T02:58:09.421Z,553.3
2022-08-19T02:59:11.983Z,552.7
2022-08-19T03:00:13.633Z,553.2
2022-08-19T03:01:15.611Z,552.9
2022-08-19T03:02:17.272Z,553
2022-08-19T03:03:19.002Z,553.1
2022-08-19T03:04:20.734Z,553.1
2022-08-19T03:05:57.497Z,553
2022-08-19T03:07:11.855Z,552.9
2022-08-19T03:08:13.518Z,552.9
2022-08-19T03:09:15.061Z,553
2022-08-19T03:10:16.711Z,553.1
2022-08-19T03:11:18.425Z,553.2
2022-08-19T03:12:19.962Z,553
2022-08-19T03:13:21.730Z,553.4
2022-08-19T03:14:23.271Z,553
2022-08-19T03:15:24.898Z,553
2022-08-19T03:16:26.443Z,552.9
2022-08-19T03:17:28.058Z,553.4
2022-08-19T03:18:30.350Z,553.5
2022-08-19T03:19:31.972Z,553.4
2022-08-19T03:20:33.672Z,553.4
2022-08-19T03:21:35.205Z,553.3
2022-08-19T03:22:36.857Z,553.7
2022-08-19T03:23:38.488Z,553.7
2022-08-19T03:24:40.026Z,554.2
2022-08-19T03:25:41.568Z,553.8
2022-08-19T03:26:43.234Z,554.5
2022-08-19T03:27:44.770Z,554.4
2022-08-19T03:28:59.193Z,554.2
2022-08-19T03:30:01.381Z,554.2
2022-08-19T03:31:52.383Z,553.8
2022-08-19T03:32:58.287Z,553.7
2022-08-19T03:34:03.827Z,553.5
2022-08-19T03:35:05.411Z,553.5
2022-08-19T03:36:07.140Z,553.7
2022-08-19T03:37:08.694Z,553.3
2022-08-19T03:38:10.328Z,553.4
2022-08-19T03:39:11.998Z,553.5
2022-08-19T03:40:17.341Z,553.3
2022-08-19T03:41:18.909Z,553.2
2022-08-19T03:42:49.972Z,553.5
2022-08-19T03:43:51.576Z,553.5
2022-08-19T03:44:53.181Z,553.3
2022-08-19T03:45:54.813Z,553.5
2022-08-19T03:46:56.450Z,552.8
2022-08-19T03:47:58.305Z,552.6
2022-08-19T03:48:59.836Z,552.6
2022-08-19T03:50:01.394Z,552.5
2022-08-19T03:51:02.950Z,552.4
2022-08-19T03:52:04.582Z,552.3
2022-08-19T03:53:06.255Z,552.3
2022-08-19T03:54:07.976Z,552.2
2022-08-19T03:55:09.621Z,552.1
2022-08-19T03:56:11.171Z,551.8
2022-08-19T03:57:13.006Z,551.9
2022-08-19T03:58:14.946Z,551.5
2022-08-19T03:59:16.499Z,551.7
2022-08-19T04:00:17.970Z,551.8
2022-08-19T04:01:33.079Z,551.8
2022-08-19T04:02:37.302Z,551.5
2022-08-19T04:03:38.842Z,551.2
2022-08-19T04:04:40.509Z,551.5
2022-08-19T04:05:42.163Z,551.2
2022-08-19T04:06:43.746Z,551.1
2022-08-19T04:07:45.458Z,551
2022-08-19T04:08:47.096Z,550.8
2022-08-19T04:09:48.636Z,550.8
2022-08-19T04:10:50.377Z,550.5
2022-08-19T04:11:51.922Z,550.5
2022-08-19T04:12:54.558Z,550.2
2022-08-19T04:13:56.300Z,550.4
2022-08-19T04:15:00.471Z,550.3
2022-08-19T04:16:02.098Z,550.2
2022-08-19T04:17:03.679Z,550.1
2022-08-19T04:18:05.221Z,549.7
2022-08-19T04:19:06.816Z,549.8
2022-08-19T04:20:08.416Z,549.8
2022-08-19T04:21:09.999Z,549.6
2022-08-19T04:22:11.536Z,549.7
2022-08-19T04:23:13.696Z,549.4
2022-08-19T04:24:15.241Z,549.8
2022-08-19T04:25:16.886Z,549.6
2022-08-19T04:26:18.422Z,549.3
2022-08-19T04:27:19.963Z,549.6
2022-08-19T04:28:21.507Z,549.2
2022-08-19T04:29:23.256Z,549.3
2022-08-19T04:30:25.107Z,549
2022-08-19T04:31:26.974Z,548.9
2022-08-19T04:32:28.696Z,548.9
2022-08-19T04:33:30.250Z,548.7
2022-08-19T04:34:31.896Z,548.9
2022-08-19T04:35:33.563Z,548.9
2022-08-19T04:36:35.106Z,548.7
2022-08-19T04:37:36.642Z,548.8
2022-08-19T04:38:38.282Z,548.7
2022-08-19T04:39:40.383Z,549
2022-08-19T04:40:42.180Z,548.7
2022-08-19T04:41:43.715Z,549.5
2022-08-19T04:42:45.350Z,549.1
2022-08-19T04:43:46.887Z,549.5
2022-08-19T04:44:48.465Z,549.4
2022-08-19T04:46:01.449Z,549.7
2022-08-19T04:47:11.916Z,549.7
2022-08-19T04:48:28.417Z,549.8
2022-08-19T04:49:29.965Z,549.8
2022-08-19T04:50:31.576Z,550.1
2022-08-19T04:51:33.256Z,550.3
2022-08-19T04:52:34.901Z,550.2
2022-08-19T04:53:38.515Z,549.9
2022-08-19T04:54:41.459Z,550
2022-08-19T04:55:43.010Z,549.7
2022-08-19T04:56:44.646Z,549.6
2022-08-19T04:57:46.304Z,549.7
2022-08-19T04:58:47.853Z,549.8
2022-08-19T04:59:49.358Z,549.3
2022-08-19T05:00:51.435Z,549.5
2022-08-19T05:01:53.092Z,549.5
2022-08-19T05:02:55.521Z,549.3
2022-08-19T05:03:57.263Z,549.4
2022-08-19T05:04:59.120Z,549.3
2022-08-19T05:06:00.654Z,549.7
2022-08-19T05:07:02.853Z,549.2
2022-08-19T05:08:04.502Z,549.2
2022-08-19T05:09:06.563Z,549.1
2022-08-19T05:10:08.269Z,548.8
2022-08-19T05:11:14.441Z,549.1
2022-08-19T05:12:16.108Z,548.7
2022-08-19T05:13:17.642Z,549.2
2022-08-19T05:14:19.173Z,549.1
2022-08-19T05:15:23.356Z,549.4
2022-08-19T05:16:24.899Z,549.3
2022-08-19T05:17:39.108Z,549.5
2022-08-19T05:18:40.761Z,549.2
2022-08-19T05:19:42.550Z,549.6
2022-08-19T05:20:44.111Z,549.8
2022-08-19T05:21:45.702Z,549.8
2022-08-19T05:22:50.814Z,549.9
2022-08-19T05:23:52.633Z,549.9
2022-08-19T05:25:14.517Z,550
2022-08-19T05:26:16.143Z,550
2022-08-19T05:27:17.716Z,549.9
2022-08-19T05:28:19.390Z,549.8
2022-08-19T05:29:22.806Z,549.8
2022-08-19T05:30:47.949Z,549.6
2022-08-19T05:31:49.502Z,549.4
2022-08-19T05:32:55.148Z,549.5
2022-08-19T05:33:57.005Z,549.5
2022-08-19T05:34:58.565Z,549.1
2022-08-19T05:36:00.256Z,549.4
2022-08-19T05:37:01.900Z,549.1
2022-08-19T05:38:03.429Z,549.4
2022-08-19T05:39:05.141Z,549.7
2022-08-19T05:40:07.134Z,549.5
2022-08-19T05:41:08.763Z,549.1
2022-08-19T05:42:10.271Z,549.3
2022-08-19T05:43:12.073Z,549.3
2022-08-19T05:44:13.799Z,548.9
2022-08-19T05:45:15.952Z,549
2022-08-19T05:46:17.592Z,549.3
2022-08-19T05:47:19.186Z,549.2
2022-08-19T05:48:21.553Z,548.9
2022-08-19T05:49:23.157Z,549.2
2022-08-19T05:50:24.858Z,548.9
2022-08-19T05:51:29.758Z,549.3
2022-08-19T05:52:32.241Z,549.1
2022-08-19T05:53:38.086Z,549
2022-08-19T05:54:39.621Z,549
2022-08-19T05:55:41.342Z,548.6
2022-08-19T05:56:42.889Z,548.8
2022-08-19T05:57:44.466Z,548.8
2022-08-19T05:58:46.395Z,548.6
2022-08-19T05:59:49.476Z,548.7
2022-08-19T06:00:59.991Z,548.8
2022-08-19T06:02:01.708Z,548.7
2022-08-19T06:03:13.811Z,548.5
2022-08-19T06:04:15.351Z,548.4
2022-08-19T06:05:17.053Z,548.6
2022-08-19T06:06:18.617Z,548.4
2022-08-19T06:07:20.269Z,548.7
2022-08-19T06:08:35.509Z,548.6
2022-08-19T06:09:37.134Z,548.4
2022-08-19T06:10:38.678Z,548.4
2022-08-19T06:11:40.333Z,548.6
2022-08-19T06:12:41.866Z,548.4
2022-08-19T06:13:43.554Z,548.3
2022-08-19T06:15:00.883Z,548
2022-08-19T06:16:03.084Z,548.1
2022-08-19T06:17:08.030Z,547.8
2022-08-19T06:18:09.648Z,548
2022-08-19T06:19:11.193Z,548.4
2022-08-19T06:20:12.756Z,547.8
2022-08-19T06:21:14.306Z,547.6
2022-08-19T06:22:15.960Z,547.6
2022-08-19T06:23:24.550Z,547.4
2022-08-19T06:24:26.183Z,547.5
2022-08-19T06:25:31.015Z,547.4
2022-08-19T06:26:32.566Z,547.4
2022-08-19T06:27:34.230Z,547.4
2022-08-19T06:28:36.168Z,547.6
2022-08-19T06:29:40.673Z,547.6
2022-08-19T06:30:42.176Z,547.8
2022-08-19T06:31:43.711Z,547.5
2022-08-19T06:32:45.316Z,547.4
2022-08-19T06:33:50.346Z,547.9
2022-08-19T06:34:51.938Z,548.3
2022-08-19T06:35:53.497Z,547.9
2022-08-19T06:36:55.000Z,548
2022-08-19T06:37:57.541Z,547.6
2022-08-19T06:38:59.342Z,547.3
2022-08-19T06:40:01.342Z,548
2022-08-19T06:41:08.580Z,547.6
2022-08-19T06:42:11.658Z,548
2022-08-19T06:43:18.810Z,548.1
2022-08-19T06:44:22.013Z,547.9
2022-08-19T06:45:40.045Z,548.3
2022-08-19T06:46:42.956Z,548.6
2022-08-19T06:47:44.774Z,548.3
2022-08-19T06:48:47.024Z,547.8
2022-08-19T06:49:49.201Z,548.5
2022-08-19T06:50:51.418Z,548.2
2022-08-19T06:51:53.226Z,548.4
2022-08-19T06:52:56.982Z,548.3
2022-08-19T06:54:00.604Z,548.6
2022-08-19T06:55:07.201Z,548.7
2022-08-19T06:56:09.007Z,548.4
2022-08-19T06:57:10.775Z,548.2
2022-08-19T06:58:12.367Z,548.4
2022-08-19T06:59:13.930Z,548.1
2022-08-19T07:00:15.916Z,547.4
2022-08-19T07:01:17.629Z,547.8
2022-08-19T07:03:20.748Z,547.9
2022-08-19T07:04:22.455Z,547.9
2022-08-19T07:05:24.202Z,547.7
2022-08-19T07:06:55.506Z,547.4
2022-08-19T07:08:05.388Z,547.4
2022-08-19T07:09:07.693Z,547.2
2022-08-19T07:10:09.387Z,547.5
2022-08-19T07:11:11.750Z,547.3
2022-08-19T07:12:13.820Z,547.3
2022-08-19T07:13:15.710Z,547.5
2022-08-19T07:14:20.586Z,547.3
2022-08-19T07:15:22.867Z,547.2
2022-08-19T07:16:30.138Z,547.1
2022-08-19T07:17:35.144Z,547.2
2022-08-19T07:18:36.839Z,546.9
2022-08-19T07:19:38.734Z,547.2
2022-08-19T07:20:42.557Z,546.8
2022-08-19T07:21:44.214Z,547.2
2022-08-19T07:22:46.742Z,547.1
2022-08-19T07:23:48.381Z,547.2
2022-08-19T07:24:52.446Z,547.6
2022-08-19T07:25:54.820Z,547.5
2022-08-19T07:26:56.607Z,547.6
2022-08-19T07:28:02.042Z,547.5
2022-08-19T07:29:04.919Z,547.6
2022-08-19T07:30:06.538Z,548
2022-08-19T07:31:09.457Z,547.6
2022-08-19T07:32:14.046Z,547.6
2022-08-19T07:33:15.791Z,547.7
2022-08-19T07:34:18.258Z,547.8
2022-08-19T07:35:20.228Z,547.7
2022-08-19T07:36:26.460Z,547.7
2022-08-19T07:37:33.863Z,547.9
2022-08-19T07:38:35.523Z,547.8
2022-08-19T07:39:37.353Z,548.1
2022-08-19T07:40:38.992Z,547.9
2022-08-19T07:41:40.718Z,548
2022-08-19T07:42:42.426Z,547.9
2022-08-19T07:43:44.030Z,548.2
2022-08-19T07:44:51.520Z,548.6
2022-08-19T07:45:53.081Z,548.7
2022-08-19T07:46:54.620Z,548.6
2022-08-19T07:47:56.274Z,548.6
2022-08-19T07:48:58.081Z,548.5
2022-08-19T07:49:59.840Z,548.4
2022-08-19T07:51:01.461Z,548.2
2022-08-19T07:52:03.047Z,548.1
2022-08-19T07:53:04.716Z,548.1
2022-08-19T07:54:09.426Z,548.3
2022-08-19T07:55:44.471Z,548.3
2022-08-19T07:56:46.149Z,548.2
2022-08-19T07:57:47.901Z,548.1
2022-08-19T07:58:49.874Z,548
2022-08-19T07:59:51.529Z,548
2022-08-19T08:00:53.252Z,548.4
2022-08-19T08:01:55.341Z,548.4
2022-08-19T08:02:57.686Z,548.3
2022-08-19T08:03:59.417Z,548.2
2022-08-19T08:05:01.133Z,548.3
2022-08-19T08:06:02.739Z,548.2
2022-08-19T08:07:04.479Z,548.2
2022-08-19T08:08:06.006Z,548.3
2022-08-19T08:09:07.865Z,548.3
2022-08-19T08:10:24.716Z,548.6
2022-08-19T08:11:29.998Z,548.6
2022-08-19T08:12:36.125Z,548.6
2022-08-19T08:13:39.644Z,548.7
2022-08-19T08:14:47.725Z,548.6
2022-08-19T08:15:56.732Z,548.9
2022-08-19T08:17:00.858Z,548.9
2022-08-19T08:18:02.833Z,549.1
2022-08-19T08:19:26.240Z,549.4
2022-08-19T08:20:27.827Z,549.3
2022-08-19T08:21:29.820Z,549.6
2022-08-19T08:22:31.625Z,549.5
2022-08-19T08:23:33.370Z,549.2
2022-08-19T08:24:35.331Z,549.5
2022-08-19T08:25:37.050Z,549.5
2022-08-19T08:26:58.045Z,549.9
2022-08-19T08:27:59.897Z,549.8
2022-08-19T08:29:01.651Z,550.2
2022-08-19T08:30:03.790Z,549.8
2022-08-19T08:31:10.396Z,550.2
2022-08-19T08:32:15.683Z,550.1
2022-08-19T08:33:35.552Z,550.1
2022-08-19T08:34:37.250Z,550.2
2022-08-19T08:35:38.846Z,550.3
2022-08-19T08:36:40.375Z,550.5
2022-08-19T08:37:41.943Z,550.5
2022-08-19T08:38:44.020Z,550.7
2022-08-19T08:39:48.736Z,550.2
2022-08-19T08:40:50.329Z,550.7
2022-08-19T08:41:51.905Z,550.7
2022-08-19T08:42:54.422Z,550.7
2022-08-19T08:43:56.186Z,550.8
2022-08-19T08:44:58.924Z,550.5
2022-08-19T08:46:00.930Z,550.8
2022-08-19T08:47:02.587Z,550.8
2022-08-19T08:48:24.696Z,551
2022-08-19T08:49:26.450Z,551.2
2022-08-19T08:50:28.703Z,551.6
2022-08-19T08:51:35.767Z,551.3
2022-08-19T08:52:43.977Z,551.5
2022-08-19T08:53:47.569Z,551.5
2022-08-19T08:54:56.380Z,551.7
2022-08-19T08:55:59.160Z,551.7
2022-08-19T08:57:00.736Z,551.5
2022-08-19T08:58:03.363Z,551.5
2022-08-19T08:59:05.184Z,551.5
2022-08-19T09:00:16.404Z,551.8
2022-08-19T09:01:18.473Z,551.9
2022-08-19T09:02:20.108Z,552
2022-08-19T09:03:23.749Z,551.8
2022-08-19T09:04:25.419Z,552
2022-08-19T09:05:48.999Z,552.4
2022-08-19T09:06:53.529Z,552.5
2022-08-19T09:07:56.637Z,552.6
2022-08-19T09:09:00.091Z,552.3
2022-08-19T09:10:01.910Z,552.4
2022-08-19T09:11:06.114Z,552.6
2022-08-19T09:12:12.367Z,552.7
2022-08-19T09:13:14.034Z,552.8
2022-08-19T09:14:52.574Z,553
2022-08-19T09:15:54.255Z,552.8
2022-08-19T09:16:55.928Z,552.6
2022-08-19T09:17:59.638Z,552.7
2022-08-19T09:19:03.299Z,553.4
2022-08-19T09:20:10.066Z,553.5
2022-08-19T09:21:11.813Z,553.3
2022-08-19T09:22:27.611Z,553.6
2022-08-19T09:23:29.278Z,553.2
2022-08-19T09:24:31.800Z,553.4
2022-08-19T09:25:33.588Z,553.3
2022-08-19T09:26:53.237Z,553.7
2022-08-19T09:28:12.734Z,553.6
2022-08-19T09:29:23.868Z,553.6
2022-08-19T09:30:25.726Z,553.6
2022-08-19T09:31:27.330Z,553.7
2022-08-19T09:32:28.962Z,553.8
2022-08-19T09:33:31.158Z,554
2022-08-19T09:34:51.193Z,554
2022-08-19T09:35:54.415Z,554
2022-08-19T09:36:56.205Z,554.3
2022-08-19T09:38:00.656Z,554.6
2022-08-19T09:39:03.025Z,554.7
2022-08-19T09:40:05.825Z,554.8
2022-08-19T09:41:07.755Z,555.1
2022-08-19T09:42:35.718Z,555
2022-08-19T09:43:49.134Z,555.2
2022-08-19T09:44:50.682Z,554.9
2022-08-19T09:45:52.362Z,554.8
2022-08-19T09:46:54.522Z,555
2022-08-19T09:47:57.130Z,554.8
2022-08-19T09:49:07.404Z,554.7
2022-08-19T09:50:10.930Z,555
2022-08-19T09:51:21.644Z,554.9
2022-08-19T09:52:32.958Z,555.1
2022-08-19T09:53:37.741Z,555.3
2022-08-19T09:54:52.184Z,555.8
2022-08-19T09:55:54.358Z,555.4
2022-08-19T09:56:55.924Z,555.5
2022-08-19T09:57:57.489Z,555.8
2022-08-19T09:58:59.170Z,555.5
2022-08-19T10:00:01.124Z,555.5
2022-08-19T10:01:03.205Z,555.3
2022-08-19T10:02:12.913Z,555.9
2022-08-19T10:03:14.660Z,555.8
2022-08-19T10:04:25.520Z,556.3
2022-08-19T10:05:28.196Z,556.4
2022-08-19T10:06:47.460Z,556.3
2022-08-19T10:07:49.555Z,556.6
2022-08-19T10:08:51.591Z,556.3
2022-08-19T10:09:53.327Z,556.7
2022-08-19T10:10:55.103Z,556.8
2022-08-19T10:11:56.826Z,556.7
2022-08-19T10:12:58.552Z,557.3
2022-08-19T10:14:00.681Z,556.5
2022-08-19T10:15:02.566Z,557
2022-08-19T10:16:04.331Z,557.1
2022-08-19T10:17:31.777Z,557.3
2022-08-19T10:18:35.444Z,557.1
2022-08-19T10:19:37.128Z,556.8
2022-08-19T10:20:38.863Z,557.2
2022-08-19T10:21:41.206Z,557.1
2022-08-19T10:22:42.814Z,557.3
2022-08-19T10:23:44.712Z,557.1
2022-08-19T10:24:49.117Z,557.3
2022-08-19T10:25:51.096Z,557.7
2022-08-19T10:27:00.489Z,557.4
2022-08-19T10:28:02.181Z,557.4
2022-08-19T10:29:03.923Z,557.1
2022-08-19T10:30:13.723Z,557.5
2022-08-19T10:31:15.510Z,557.6
2022-08-19T10:32:35.044Z,557.7
2022-08-19T10:33:54.532Z,558
2022-08-19T10:34:57.784Z,558.3
2022-08-19T10:35:59.467Z,558.2
2022-08-19T10:37:02.818Z,558.4
2022-08-19T10:38:06.885Z,558.7
2022-08-19T10:39:11.884Z,558.7
2022-08-19T10:40:13.760Z,558.9
2022-08-19T10:41:15.389Z,558.9
2022-08-19T10:42:17.067Z,558.7
2022-08-19T10:43:18.750Z,559.1
2022-08-19T10:44:20.404Z,558.9
2022-08-19T10:45:24.570Z,559
2022-08-19T10:46:26.157Z,558.9
2022-08-19T10:47:32.472Z,558.9
2022-08-19T10:48:34.320Z,558.6
2022-08-19T10:49:36.099Z,558.9
2022-08-19T10:50:39.352Z,559
2022-08-19T10:51:49.916Z,558.9
2022-08-19T10:52:51.591Z,559
2022-08-19T10:53:53.320Z,558.8
2022-08-19T10:54:55.049Z,559.3
2022-08-19T10:55:56.792Z,559.1
2022-08-19T10:56:58.875Z,559
2022-08-19T10:58:03.589Z,559.2
2022-08-19T10:59:05.237Z,559.3
2022-08-19T11:00:06.875Z,559.6
2022-08-19T11:01:08.850Z,559.6
2022-08-19T11:02:10.563Z,559.4
2022-08-19T11:03:12.303Z,559.6
2022-08-19T11:04:13.978Z,559.2
2022-08-19T11:05:16.289Z,559.8
2022-08-19T11:06:17.961Z,559.7
2022-08-19T11:07:19.533Z,559.4
2022-08-19T11:08:24.442Z,559.5
2022-08-19T11:09:34.892Z,559.7
2022-08-19T11:10:36.620Z,559.8
2022-08-19T11:11:39.832Z,560.1
2022-08-19T11:12:41.410Z,560
2022-08-19T11:13:43.011Z,559.8
2022-08-19T11:14:47.296Z,560
2022-08-19T11:15:48.850Z,560.1
2022-08-19T11:16:50.473Z,560.1
2022-08-19T11:17:52.182Z,560
2022-08-19T11:18:54.081Z,559.9
2022-08-19T11:19:55.635Z,560.3
2022-08-19T11:20:57.287Z,560.2
2022-08-19T11:22:01.230Z,560.2
2022-08-19T11:23:04.899Z,560.3
2022-08-19T11:24:06.551Z,560.1
2022-08-19T11:25:08.134Z,560.4
2022-08-19T11:26:09.710Z,560.1
2022-08-19T11:27:11.260Z,560.5
2022-08-19T11:28:12.816Z,560.6
2022-08-19T11:29:14.549Z,560.8
2022-08-19T11:30:16.245Z,560.9
2022-08-19T11:31:17.931Z,560.9
2022-08-19T11:32:19.586Z,561
2022-08-19T11:33:21.242Z,561
2022-08-19T11:34:22.868Z,560.8
2022-08-19T11:35:24.518Z,561
2022-08-19T11:36:26.138Z,561.2
2022-08-19T11:37:27.812Z,561.2
2022-08-19T11:38:29.472Z,561.1
2022-08-19T11:39:31.320Z,561.3
2022-08-19T11:40:33.004Z,561.6
2022-08-19T11:41:34.702Z,561.5
2022-08-19T11:42:36.266Z,561.5
2022-08-19T11:43:38.386Z,562.1
2022-08-19T11:44:40.140Z,562.1
2022-08-19T11:45:41.757Z,562.1
2022-08-19T11:46:43.307Z,562.3
2022-08-19T11:47:46.092Z,561.9
2022-08-19T11:48:47.635Z,562
2022-08-19T11:49:49.308Z,562
2022-08-19T11:50:50.846Z,562.3
2022-08-19T11:51:54.425Z,562.3
2022-08-19T11:52:55.965Z,562.6
2022-08-19T11:53:57.613Z,562.6
2022-08-19T11:54:59.269Z,562.7
2022-08-19T11:56:01.038Z,562.8
2022-08-19T11:57:02.569Z,562.8
2022-08-19T11:58:04.136Z,562.8
2022-08-19T11:59:05.668Z,563.1
2022-08-19T12:00:07.260Z,563.3
2022-08-19T12:01:09.023Z,563.1
2022-08-19T12:02:10.628Z,563.2
2022-08-19T12:03:12.254Z,563.3
2022-08-19T12:04:14.316Z,563.7
2022-08-19T12:05:16.109Z,563.7
2022-08-19T12:06:17.893Z,563.8
2022-08-19T12:07:19.505Z,564
2022-08-19T12:08:21.161Z,564.1
2022-08-19T12:09:22.726Z,564.1
2022-08-19T12:10:27.120Z,564.3
2022-08-19T12:11:35.117Z,564.4
2022-08-19T12:12:36.662Z,564.6
2022-08-19T12:13:38.283Z,565.1
2022-08-19T12:14:39.834Z,564.4
2022-08-19T12:15:41.450Z,564.8
2022-08-19T12:16:53.158Z,565
2022-08-19T12:17:55.582Z,565
2022-08-19T12:18:57.251Z,564.8
2022-08-19T12:19:58.895Z,565.1
2022-08-19T12:21:00.700Z,565.2
2022-08-19T12:22:02.319Z,565.6
2022-08-19T12:23:03.859Z,565.7
2022-08-19T12:24:06.790Z,565.8
2022-08-19T12:25:08.953Z,565.8
2022-08-19T12:26:10.829Z,565.9
2022-08-19T12:27:41.834Z,566
2022-08-19T12:28:44.467Z,566.3
2022-08-19T12:29:45.998Z,566.4
2022-08-19T12:30:47.650Z,566.3
2022-08-19T12:31:49.298Z,566
2022-08-19T12:32:51.113Z,566
2022-08-19T12:33:52.651Z,566.2
2022-08-19T12:34:54.196Z,566.4
2022-08-19T12:35:55.838Z,566.5
2022-08-19T12:36:57.486Z,566.3
2022-08-19T12:38:00.737Z,566.5
2022-08-19T12:39:02.578Z,567
2022-08-19T12:40:04.593Z,566.9
2022-08-19T12:41:06.250Z,567
2022-08-19T12:42:07.946Z,567.5
2022-08-19T12:43:09.550Z,567.2
2022-08-19T12:44:15.025Z,567.1
2022-08-19T12:45:17.020Z,567.5
2022-08-19T12:46:18.714Z,567.9
2022-08-19T12:47:20.485Z,567.8
2022-08-19T12:48:35.562Z,568
2022-08-19T12:49:56.558Z,567.8
2022-08-19T12:50:58.303Z,568.1
2022-08-19T12:51:59.935Z,568
2022-08-19T12:53:01.482Z,568
2022-08-19T12:54:03.124Z,567.8
2022-08-19T12:55:04.745Z,567.7
2022-08-19T12:56:13.081Z,567.7
2022-08-19T12:57:14.858Z,568
2022-08-19T12:58:16.483Z,567.8
2022-08-19T12:59:18.147Z,567.9
2022-08-19T13:00:19.787Z,568.1
2022-08-19T13:01:23.998Z,568
2022-08-19T13:02:25.728Z,568.5
2022-08-19T13:03:27.374Z,568.3
2022-08-19T13:04:29.034Z,568.6
2022-08-19T13:05:30.652Z,568.3
2022-08-19T13:06:34.972Z,568.1
2022-08-19T13:07:36.573Z,568.8
2022-08-19T13:08:38.277Z,569
2022-08-19T13:09:39.922Z,568.9
2022-08-19T13:10:41.568Z,568.7
2022-08-19T13:11:43.107Z,568.8
2022-08-19T13:12:44.662Z,568.6
2022-08-19T13:13:46.315Z,568.6
2022-08-19T13:14:50.066Z,568.8
2022-08-19T13:15:52.761Z,569.1
2022-08-19T13:16:54.404Z,568.5
2022-08-19T13:17:57.663Z,568.8
2022-08-19T13:18:59.713Z,569
2022-08-19T13:20:01.389Z,569.1
2022-08-19T13:21:03.315Z,569.2
2022-08-19T13:22:15.519Z,569.2
2022-08-19T13:23:17.219Z,569.4
2022-08-19T13:24:18.813Z,569.2
2022-08-19T13:25:20.350Z,569.5
2022-08-19T13:26:22.018Z,569.6
2022-08-19T13:27:23.662Z,569.5
2022-08-19T13:28:29.786Z,569.3
2022-08-19T13:29:31.472Z,569.4
2022-08-19T13:30:33.166Z,569.4
2022-08-19T13:31:34.742Z,569.9
2022-08-19T13:32:36.561Z,569.7
2022-08-19T13:33:38.226Z,569.6
2022-08-19T13:34:39.776Z,570.4
2022-08-19T13:35:42.028Z,569.9
2022-08-19T13:36:43.569Z,569.9
2022-08-19T13:37:45.231Z,569.9
2022-08-19T13:38:46.940Z,569.9
2022-08-19T13:39:49.048Z,569.9
2022-08-19T13:40:50.849Z,570.1
2022-08-19T13:41:53.012Z,570.4
2022-08-19T13:42:54.630Z,570.4
2022-08-19T13:43:56.418Z,570.6
2022-08-19T13:44:58.031Z,570.6